Allamuchy, New Jersey
Current Conditions -  °F | °C
As of 12:42 PM on Wednesday 26 Nov 2014 (Local Time) from KFWN Reporting Station
Moderate Snow Moderate Snow  
Wind Chill: 26°   Ceiling: 800
Heat Index: 33°   Visibility: 0.25mi
Dew Point: 32°   Wind: 8mph
Humidity: 96%   Direction: 30°NNE
Pressure: 30.03"   Gusts: NA
Location:  40.92°N, 74.81°W
Report Text: KFWN 261742Z AUTO 03007KT 1/4SM SN FG OVC008 01/00 A3003 RMK AO2 P0006 T00060000
Loading
Personal Weather Stations






























Interactive Weather Map New forecast layout! Learn more

10-Day Weather Forecast

Advertisements
Track Severe Weather on mobile